Time;durP1;ratioP1;P1;durP2;ratioP2;P2;SDS_P1;SDS_P2;PMS_P1;PMS_P2;Temp;Humidity;BMP_temperature;BMP_pressure;BME280_temperature;BME280_humidity;BME280_pressure;Samples;Min_cycle;Max_cycle;Signal;HPM_P1;HPM_P2
2023/12/20 00:03:25;;;;;;;55.30;27.90;;;8.30;99.90;;;;;;770089;187;26968;-92
2023/12/20 00:05:52;;;;;;;74.80;32.50;;;8.30;99.90;;;;;;769961;186;26578;-92
2023/12/20 00:08:19;;;;;;;70.13;31.30;;;8.30;99.90;;;;;;770380;186;26522;-93
2023/12/20 00:10:45;;;;;;;167.37;65.03;;;8.30;99.90;;;;;;769927;186;27041;-93
2023/12/20 00:13:12;;;;;;;97.07;41.37;;;8.30;99.90;;;;;;769672;186;26482;-93
2023/12/20 00:15:38;;;;;;;131.90;50.63;;;8.30;99.90;;;;;;769503;186;27103;-93
2023/12/20 00:18:05;;;;;;;77.23;33.00;;;8.40;99.90;;;;;;769564;182;26528;-93
2023/12/20 00:20:32;;;;;;;68.63;30.90;;;8.30;99.90;;;;;;769087;186;26500;-92
2023/12/20 00:23:14;;;;;;;86.37;38.00;;;8.30;99.90;;;;;;769333;184;27014;-92
2023/12/20 00:25:41;;;;;;;67.80;31.77;;;8.30;99.90;;;;;;778327;183;26510;-92
2023/12/20 00:28:07;;;;;;;52.37;25.30;;;8.40;99.90;;;;;;777830;184;26537;-92
2023/12/20 00:30:34;;;;;;;42.17;21.53;;;8.30;99.90;;;;;;778266;185;27083;-92
2023/12/20 00:33:00;;;;;;;49.00;23.27;;;8.40;99.90;;;;;;777666;184;26521;-91
2023/12/20 00:35:27;;;;;;;37.27;19.60;;;8.40;99.90;;;;;;777487;185;26510;-91
2023/12/20 00:37:54;;;;;;;42.63;20.53;;;8.40;99.90;;;;;;777361;185;26510;-91
2023/12/20 00:40:33;;;;;;;25.47;13.73;;;8.40;99.90;;;;;;777512;185;27015;-90
2023/12/20 00:43:08;;;;;;;29.37;13.93;;;8.40;99.90;;;;;;777545;184;26470;-90
2023/12/20 00:48:31;;;;;;;27.03;14.97;;;8.30;99.90;;;;;;768817;186;26516;-90
2023/12/20 00:50:56;;;;;;;26.03;13.90;;;8.20;99.90;;;;;;772391;183;26532;-91
2023/12/20 00:53:43;;;;;;;29.77;15.13;;;8.20;99.90;;;;;;781330;184;26522;-91
2023/12/20 00:56:10;;;;;;;30.97;14.13;;;8.20;99.90;;;;;;777422;184;27022;-91
2023/12/20 00:58:36;;;;;;;31.43;14.80;;;8.20;99.90;;;;;;777422;185;27144;-91
2023/12/20 01:01:03;;;;;;;31.07;14.67;;;8.20;99.90;;;;;;774418;184;26526;-91
2023/12/20 01:03:30;;;;;;;26.40;13.97;;;8.30;99.90;;;;;;776247;184;26999;-90
2023/12/20 01:05:56;;;;;;;34.60;16.40;;;8.30;99.90;;;;;;779532;183;26547;-91
2023/12/20 01:08:23;;;;;;;33.90;15.40;;;8.30;99.90;;;;;;778465;180;26501;-91
2023/12/20 01:10:49;;;;;;;32.83;14.17;;;8.30;99.90;;;;;;776719;183;26528;-92
2023/12/20 01:13:16;;;;;;;26.13;13.20;;;8.40;99.90;;;;;;771571;181;26531;-91
2023/12/20 01:15:43;;;;;;;29.33;14.00;;;8.30;99.90;;;;;;776956;184;27070;-91
2023/12/20 01:18:09;;;;;;;28.83;12.60;;;8.20;99.90;;;;;;779007;181;26515;-92
2023/12/20 01:20:36;;;;;;;27.73;13.00;;;8.10;99.90;;;;;;778847;180;26498;-92
2023/12/20 01:23:02;;;;;;;34.63;14.70;;;8.00;99.90;;;;;;775865;181;26475;-92
2023/12/20 01:25:29;;;;;;;28.47;14.03;;;7.90;99.90;;;;;;771321;183;26524;-90
2023/12/20 01:27:56;;;;;;;33.30;15.10;;;7.90;99.90;;;;;;771183;184;26575;-90
2023/12/20 01:30:22;;;;;;;34.60;15.40;;;8.00;99.90;;;;;;776558;184;26481;-90
2023/12/20 01:32:49;;;;;;;33.00;13.13;;;8.10;99.90;;;;;;769506;182;26464;-90
2023/12/20 01:35:15;;;;;;;37.87;14.13;;;8.00;99.90;;;;;;775388;184;27080;-91
2023/12/20 01:37:42;;;;;;;33.77;15.43;;;7.90;99.90;;;;;;778370;181;26526;-91
2023/12/20 01:40:09;;;;;;;39.27;16.70;;;8.00;99.90;;;;;;779005;184;26517;-90
2023/12/20 01:42:36;;;;;;;45.63;17.77;;;8.00;99.90;;;;;;774147;181;27150;-92
2023/12/20 01:45:03;;;;;;;47.30;17.83;;;8.00;99.90;;;;;;770272;185;26500;-90
2023/12/20 01:59:02;;;;;;;59.33;22.37;;;8.00;99.90;;;;;;710661;180;26557;-91
2023/12/20 02:01:43;;;;;;;54.07;22.77;;;8.10;99.90;;;;;;756219;187;26529;-91
2023/12/20 02:04:43;;;;;;;57.23;24.73;;;8.00;99.90;;;;;;783440;183;26498;-89
2023/12/20 02:10:21;;;;;;;52.87;21.77;;;7.80;99.90;;;;;;748962;187;26550;-92
2023/12/20 02:13:02;;;;;;;50.70;20.87;;;7.70;99.50;;;;;;757497;187;27142;-92
2023/12/20 02:15:46;;;;;;;59.07;25.63;;;7.70;99.20;;;;;;767686;185;27143;-92
2023/12/20 02:21:39;;;;;;;51.60;20.63;;;7.50;99.30;;;;;;779592;180;26749;-93
2023/12/20 02:24:46;;;;;;;;;;;;;;;;;;;;;
2023/12/20 02:46:57;;;;;;;48.27;14.57;;;6.90;98.60;;;;;;721514;176;26557;-90
2023/12/20 02:54:58;;;;;;;54.07;13.00;;;6.80;98.80;;;;;;788872;180;26513;-92
2023/12/20 03:11:29;;;;;;;40.47;7.93;;;6.80;98.10;;;;;;753089;173;26474;-90
2023/12/20 03:14:36;;;;;;;;;;;;;;;;;;;;;
2023/12/20 03:22:51;;;;;;;27.03;6.70;;;6.80;98.30;;;;;;802130;175;27066;-88
2023/12/20 03:26:01;;;;;;;25.70;6.90;;;6.80;98.30;;;;;;801456;177;26513;-85
2023/12/20 03:28:34;;;;;;;;;;;;;;;;;;;;;
2023/12/20 03:37:03;;;;;;;;;;;;;;;;;;;;;
2023/12/20 03:39:47;;;;;;;28.00;6.97;;;6.90;98.50;;;;;;811404;173;26449;-90
2023/12/20 03:42:30;;;;;;;;;;;;;;;;;;;;;
2023/12/20 03:45:22;;;;;;;37.27;7.10;;;7.00;98.50;;;;;;807458;177;26441;-87
2023/12/20 03:47:56;;;;;;;22.37;5.97;;;7.00;98.00;;;;;;800750;175;26482;-88
2023/12/20 03:50:50;;;;;;;30.17;6.57;;;7.00;98.10;;;;;;770179;182;26484;-89
2023/12/20 03:53:31;;;;;;;29.70;7.83;;;7.00;97.80;;;;;;814931;176;26481;-86
2023/12/20 03:56:06;;;;;;;28.00;6.80;;;7.00;97.80;;;;;;781621;183;26476;-88
2023/12/20 03:58:41;;;;;;;36.37;6.93;;;7.00;97.80;;;;;;783709;180;26472;-89
2023/12/20 04:01:20;;;;;;;25.30;6.80;;;7.00;97.50;;;;;;785401;181;26443;-89
2023/12/20 04:06:25;;;;;;;24.30;6.93;;;7.00;97.60;;;;;;797349;179;26416;-88
2023/12/20 04:09:09;;;;;;;35.63;7.57;;;7.10;97.70;;;;;;798065;180;26487;-88
2023/12/20 04:14:12;;;;;;;32.13;7.07;;;7.00;97.20;;;;;;765008;188;26468;-89
2023/12/20 04:16:56;;;;;;;38.40;6.97;;;7.00;97.00;;;;;;775886;183;26528;-88
2023/12/20 04:19:30;;;;;;;37.27;8.83;;;7.00;97.50;;;;;;780799;178;26502;-88
2023/12/20 04:21:57;;;;;;;35.57;8.10;;;7.00;97.40;;;;;;784476;181;26441;-87
2023/12/20 04:24:26;;;;;;;29.80;7.67;;;7.00;97.00;;;;;;778441;182;26457;-88
2023/12/20 04:27:10;;;;;;;37.30;8.83;;;6.90;97.30;;;;;;784445;179;26489;-87
2023/12/20 04:32:24;;;;;;;30.67;8.13;;;7.00;97.10;;;;;;774841;184;26789;-89
2023/12/20 04:34:54;;;;;;;35.63;9.47;;;7.00;97.10;;;;;;771757;185;27062;-88
2023/12/20 04:43:35;;;;;;;;;;;;;;;;;;;;;
2023/12/20 04:51:27;;;;;;;32.63;9.23;;;6.80;97.40;;;;;;734658;174;26546;-86
2023/12/20 04:54:00;;;;;;;35.23;8.40;;;6.90;98.00;;;;;;762558;188;26504;-86
2023/12/20 04:56:30;;;;;;;30.60;8.23;;;6.80;97.50;;;;;;762170;184;26571;-87
2023/12/20 04:58:59;;;;;;;48.07;10.37;;;6.80;97.70;;;;;;761988;188;26544;-88
2023/12/20 05:01:34;;;;;;;31.27;9.00;;;6.80;97.40;;;;;;761695;185;26486;-87
2023/12/20 05:04:03;;;;;;;34.87;8.50;;;6.90;97.10;;;;;;761628;186;26512;-87
2023/12/20 05:06:41;;;;;;;27.47;9.20;;;6.90;97.20;;;;;;775225;184;26542;-88
2023/12/20 05:09:19;;;;;;;39.37;9.60;;;6.80;97.00;;;;;;761558;185;27067;-87
2023/12/20 05:11:54;;;;;;;36.80;10.10;;;6.80;97.40;;;;;;774293;181;27058;-87
2023/12/20 05:14:33;;;;;;;48.73;11.63;;;6.70;97.30;;;;;;765545;187;26504;-86
2023/12/20 05:17:11;;;;;;;34.17;9.33;;;6.60;97.30;;;;;;774573;184;26483;-87
2023/12/20 05:19:42;;;;;;;37.77;9.30;;;6.50;97.60;;;;;;760963;184;26515;-89
2023/12/20 05:22:19;;;;;;;44.00;12.43;;;6.60;98.00;;;;;;756161;189;26506;-86
2023/12/20 05:24:49;;;;;;;42.47;10.03;;;6.60;97.70;;;;;;755954;189;26523;-87
2023/12/20 05:27:18;;;;;;;33.07;8.20;;;6.70;97.90;;;;;;755711;186;26526;-86
2023/12/20 05:29:57;;;;;;;46.77;10.47;;;6.70;97.10;;;;;;755815;189;26497;-87
2023/12/20 05:32:32;;;;;;;23.23;8.77;;;6.70;97.30;;;;;;768617;184;26473;-87
2023/12/20 05:35:03;;;;;;;44.53;10.27;;;6.60;97.80;;;;;;765616;188;26557;-87
2023/12/20 05:37:33;;;;;;;41.03;9.50;;;6.70;97.30;;;;;;761416;188;27006;-87
2023/12/20 05:40:04;;;;;;;34.23;9.10;;;6.60;97.20;;;;;;762165;188;27095;-86
2023/12/20 05:43:14;;;;;;;41.93;11.17;;;6.60;97.20;;;;;;765785;184;26544;-86
2023/12/20 05:45:24;;;;;;;31.13;9.67;;;6.70;97.10;;;;;;766411;184;27044;-87
2023/12/20 05:48:08;;;;;;;25.67;8.73;;;6.50;97.20;;;;;;751938;184;26541;-87
2023/12/20 05:50:42;;;;;;;40.03;8.60;;;6.60;97.10;;;;;;771231;182;27111;-87
2023/12/20 05:53:10;;;;;;;37.73;10.53;;;6.60;97.10;;;;;;771391;184;26563;-87
2023/12/20 05:55:42;;;;;;;42.33;10.33;;;6.70;97.20;;;;;;774225;182;26587;-86
2023/12/20 05:58:27;;;;;;;33.77;9.20;;;6.60;97.20;;;;;;774174;181;26490;-86
2023/12/20 06:01:04;;;;;;;41.80;9.00;;;6.60;97.30;;;;;;767304;182;26476;-87
2023/12/20 06:03:34;;;;;;;30.90;8.87;;;6.60;97.10;;;;;;764682;188;26460;-87
2023/12/20 06:06:10;;;;;;;26.17;9.30;;;6.70;97.00;;;;;;764424;183;26510;-86
2023/12/20 06:08:51;;;;;;;;;;;;;;;;;;;;;
2023/12/20 06:11:31;;;;;;;;;;;;;;;;;;;;;
2023/12/20 06:13:59;;;;;;;39.37;10.00;;;6.60;97.30;;;;;;781296;184;26527;-87
2023/12/20 06:16:38;;;;;;;44.57;11.33;;;6.70;97.80;;;;;;782773;184;26489;-86
2023/12/20 06:19:20;;;;;;;;;;;;;;;;;;;;;
2023/12/20 06:21:57;;;;;;;52.37;10.30;;;6.70;97.30;;;;;;782862;183;26525;-86
2023/12/20 06:24:33;;;;;;;41.40;9.63;;;6.70;97.40;;;;;;780161;184;27057;-87
2023/12/20 06:27:03;;;;;;;40.33;9.27;;;6.70;97.40;;;;;;781911;181;26487;-87
2023/12/20 06:29:44;;;;;;;40.70;11.50;;;6.80;97.60;;;;;;772848;184;26558;-86
2023/12/20 06:32:13;;;;;;;40.07;10.00;;;6.80;97.30;;;;;;771345;183;26495;-89
2023/12/20 06:34:44;;;;;;;35.07;9.67;;;6.80;97.10;;;;;;768223;180;27085;-88
2023/12/20 06:37:15;;;;;;;37.23;10.37;;;6.80;97.10;;;;;;765596;185;26475;-88
2023/12/20 06:39:47;;;;;;;33.17;9.67;;;6.80;97.20;;;;;;778489;182;27134;-89
2023/12/20 06:42:21;;;;;;;39.77;10.33;;;6.80;97.10;;;;;;769903;182;26487;-87
2023/12/20 06:44:56;;;;;;;32.73;9.43;;;6.90;97.30;;;;;;775430;184;26492;-88
2023/12/20 06:47:33;;;;;;;39.23;9.90;;;6.90;97.00;;;;;;767215;186;27026;-86
2023/12/20 06:50:04;;;;;;;33.60;9.23;;;6.90;97.30;;;;;;764329;188;27091;-87
2023/12/20 06:52:38;;;;;;;37.23;7.63;;;6.90;96.90;;;;;;764235;187;26475;-87
2023/12/20 06:55:07;;;;;;;36.77;8.53;;;7.00;96.80;;;;;;764421;186;26466;-87
2023/12/20 06:57:38;;;;;;;32.27;8.13;;;7.00;96.80;;;;;;764612;182;26530;-88
2023/12/20 07:00:08;;;;;;;30.90;7.60;;;7.00;96.80;;;;;;764483;186;26534;-87
2023/12/20 07:02:38;;;;;;;35.43;8.93;;;7.00;96.60;;;;;;766480;183;26560;-87
2023/12/20 07:05:06;;;;;;;35.83;7.90;;;7.00;96.50;;;;;;775000;185;27046;-87
2023/12/20 07:07:36;;;;;;;34.40;9.57;;;7.00;96.70;;;;;;779390;181;26758;-87
2023/12/20 07:10:16;;;;;;;28.00;7.30;;;7.00;96.80;;;;;;793951;181;26464;-89
2023/12/20 07:12:51;;;;;;;28.03;7.63;;;7.00;96.40;;;;;;781999;183;26474;-87
2023/12/20 07:15:29;;;;;;;32.53;8.00;;;7.10;96.70;;;;;;775021;182;26482;-87
2023/12/20 07:18:06;;;;;;;;;;;;;;;;;;;;;
2023/12/20 07:20:37;;;;;;;30.33;8.23;;;7.10;95.90;;;;;;761976;185;26464;-87
2023/12/20 07:23:04;;;;;;;34.93;8.83;;;7.10;95.80;;;;;;782907;184;27032;-88
2023/12/20 07:25:37;;;;;;;29.33;8.20;;;7.10;96.00;;;;;;782874;180;26465;-88
2023/12/20 07:28:09;;;;;;;36.37;9.13;;;7.10;95.60;;;;;;779079;184;26517;-89
2023/12/20 07:30:45;;;;;;;36.53;7.73;;;7.10;95.80;;;;;;762636;180;26483;-89
2023/12/20 07:33:18;;;;;;;34.53;8.23;;;7.10;95.20;;;;;;768546;184;26473;-90
2023/12/20 07:35:59;;;;;;;;;;;;;;;;;;;;;
2023/12/20 07:38:30;;;;;;;38.03;8.57;;;7.10;95.20;;;;;;765470;185;27087;-88
2023/12/20 07:40:58;;;;;;;37.43;9.83;;;7.10;95.20;;;;;;762316;185;26517;-89
2023/12/20 07:43:31;;;;;;;32.10;10.33;;;7.20;95.40;;;;;;770229;182;26478;-89
2023/12/20 07:46:09;;;;;;;35.83;9.50;;;7.20;95.40;;;;;;775579;184;26469;-88
2023/12/20 07:48:36;;;;;;;42.43;10.60;;;7.20;95.70;;;;;;785436;174;26538;-85
2023/12/20 07:51:07;;;;;;;51.67;11.53;;;7.20;95.50;;;;;;792816;180;26475;-89
2023/12/20 08:24:57;;;;;;;;;;;;;;;;;;;;;
2023/12/20 08:30:39;;;;;;;;;;;;;;;;;;;;;
2023/12/20 08:33:19;;;;;;;35.97;9.30;;;7.20;94.30;;;;;;803460;174;26470;-89
2023/12/20 08:36:05;;;;;;;;;;;;;;;;;;;;;
2023/12/20 08:38:36;;;;;;;38.80;9.10;;;7.30;94.90;;;;;;794038;176;26432;-79
2023/12/20 08:41:12;;;;;;;30.70;8.67;;;7.30;94.90;;;;;;794050;178;26492;-78
2023/12/20 08:46:33;;;;;;;27.23;8.63;;;7.40;94.60;;;;;;788582;179;26491;-79
2023/12/20 08:49:21;;;;;;;36.17;8.73;;;7.40;94.20;;;;;;797816;178;26500;-80
2023/12/20 08:52:07;;;;;;;29.63;8.67;;;7.60;95.10;;;;;;806186;177;26431;-78
2023/12/20 08:54:35;;;;;;;29.63;9.83;;;7.50;93.70;;;;;;804489;175;26480;-80
2023/12/20 08:57:32;;;;;;;;;;;;;;;;;;;;;
2023/12/20 09:00:16;;;;;;;33.37;9.47;;;7.60;93.60;;;;;;804891;175;26446;-82
2023/12/20 09:50:12;;;;;;;;;;;;;;;;;;;;;
2023/12/20 09:53:17;;;;;;;29.37;9.17;;;7.70;93.30;;;;;;813339;175;27025;-88
2023/12/20 10:32:22;;;;;;;25.40;6.97;;;7.80;93.00;;;;;;747087;174;27048;-87
2023/12/20 10:35:03;;;;;;;25.70;7.17;;;7.80;92.40;;;;;;815092;173;26502;-86
2023/12/20 10:40:39;;;;;;;37.10;7.87;;;7.80;92.70;;;;;;808282;176;26397;-87
2023/12/20 10:43:26;;;;;;;27.87;8.67;;;7.90;92.50;;;;;;776485;181;26466;-86
2023/12/20 10:46:03;;;;;;;28.67;8.67;;;7.80;92.40;;;;;;809762;173;26553;-88
2023/12/20 10:48:46;;;;;;;30.80;11.03;;;7.90;92.20;;;;;;790271;179;26438;-87
2023/12/20 10:51:31;;;;;;;32.00;9.00;;;7.90;92.60;;;;;;792926;181;26475;-85
2023/12/20 10:54:08;;;;;;;29.13;9.30;;;7.90;92.40;;;;;;808785;173;26421;-85
2023/12/20 10:56:46;;;;;;;48.53;11.53;;;8.00;92.50;;;;;;808869;177;27057;-85
2023/12/20 11:05:00;;;;;;;33.17;9.73;;;7.90;91.90;;;;;;808927;178;26449;-86
2023/12/20 11:10:44;;;;;;;33.17;9.50;;;7.80;92.50;;;;;;798176;179;26470;-82
2023/12/20 11:13:25;;;;;;;74.97;25.67;;;7.80;92.10;;;;;;780357;180;26467;-89
2023/12/20 11:27:21;;;;;;;40.27;14.97;;;8.00;92.30;;;;;;731022;177;27106;-86
2023/12/20 11:32:42;;;;;;;36.60;10.40;;;8.00;92.00;;;;;;802014;179;26407;-86
2023/12/20 11:41:04;;;;;;;65.73;19.13;;;8.10;91.90;;;;;;764619;187;27052;-85
2023/12/20 11:46:57;;;;;;;;;;;;;;;;;;;;;
2023/12/20 11:49:42;;;;;;;65.33;21.60;;;8.40;92.40;;;;;;781785;182;27056;-87
2023/12/20 11:52:18;;;;;;;86.30;26.60;;;8.40;91.50;;;;;;767348;187;27092;-87
2023/12/20 11:54:56;;;;;;;108.60;30.70;;;8.30;91.10;;;;;;795136;179;26469;-87
2023/12/20 12:03:09;;;;;;;94.20;32.33;;;8.30;91.60;;;;;;796703;180;27020;-87
2023/12/20 12:08:25;;;;;;;72.97;20.80;;;8.20;91.40;;;;;;796143;178;26600;-87
2023/12/20 12:11:10;;;;;;;78.23;23.23;;;8.20;91.50;;;;;;796019;178;27006;-84
2023/12/20 12:14:00;;;;;;;39.63;15.43;;;8.20;91.80;;;;;;796018;180;26449;-88
2023/12/20 12:19:51;;;;;;;29.97;10.83;;;8.10;92.10;;;;;;782211;183;26618;-86
2023/12/20 12:22:27;;;;;;;71.43;20.00;;;8.10;91.80;;;;;;782106;183;26564;-88
2023/12/20 12:27:55;;;;;;;57.63;15.73;;;8.10;92.00;;;;;;793881;180;26458;-85
2023/12/20 12:30:52;;;;;;;35.17;11.30;;;8.10;91.90;;;;;;796034;180;26702;-87
2023/12/20 12:33:44;;;;;;;;;;;;;;;;;;;;;
2023/12/20 12:36:19;;;;;;;149.83;48.30;;;8.10;92.20;;;;;;795303;180;26583;-87
2023/12/20 12:39:06;;;;;;;49.53;17.03;;;8.10;92.20;;;;;;796999;179;26457;-87
2023/12/20 12:42:00;;;;;;;;;;;;;;;;;;;;;
2023/12/20 12:44:42;;;;;;;92.20;25.53;;;8.20;92.00;;;;;;796407;180;26512;-84
2023/12/20 12:47:19;;;;;;;63.83;21.53;;;8.20;91.90;;;;;;797098;180;27059;-87
2023/12/20 12:50:11;;;;;;;57.30;18.80;;;8.20;91.90;;;;;;797473;180;26452;-88
2023/12/20 12:53:32;;;;;;;141.63;45.53;;;8.20;92.00;;;;;;792894;180;26453;-87
2023/12/20 12:56:07;;;;;;;;;;;;;;;;;;;;;
2023/12/20 12:59:04;;;;;;;130.37;37.00;;;8.20;91.80;;;;;;795826;178;26504;-87
2023/12/20 13:01:46;;;;;;;62.53;21.20;;;8.20;92.30;;;;;;797542;177;26464;-88
2023/12/20 13:04:57;;;;;;;109.30;36.80;;;8.20;92.50;;;;;;796895;178;26453;-85
2023/12/20 13:08:19;;;;;;;;;;;;;;;;;;;;;
2023/12/20 13:13:39;;;;;;;27.40;9.80;;;8.20;93.00;;;;;;797985;180;26446;-88
2023/12/20 13:16:25;;;;;;;51.47;10.20;;;8.20;93.40;;;;;;766718;176;26536;-87
2023/12/20 13:19:05;;;;;;;34.37;10.33;;;8.20;93.30;;;;;;758257;187;26493;-88
2023/12/20 13:22:08;;;;;;;;;;;;;;;;;;;;;
2023/12/20 13:24:58;;;;;;;83.83;28.27;;;8.20;93.50;;;;;;760865;175;26529;-87
2023/12/20 13:27:39;;;;;;;51.47;15.70;;;8.30;93.90;;;;;;741161;193;26596;-87
2023/12/20 13:30:17;;;;;;;32.80;11.67;;;8.30;93.50;;;;;;754929;186;26492;-87
2023/12/20 13:32:59;;;;;;;39.20;13.23;;;8.30;93.20;;;;;;752612;190;26492;-88
2023/12/20 13:39:01;;;;;;;;;;;;;;;;;;;;;
2023/12/20 13:41:10;;;;;;;77.27;24.93;;;8.40;93.70;;;;;;749918;188;27119;-83
2023/12/20 13:43:48;;;;;;;75.67;22.50;;;8.40;93.90;;;;;;751221;190;27067;-86
2023/12/20 13:52:20;;;;;;;81.17;28.47;;;8.40;92.90;;;;;;795583;177;26533;-88
2023/12/20 13:55:16;;;;;;;;;;;;;;;;;;;;;
2023/12/20 13:57:58;;;;;;;52.10;18.40;;;8.30;93.50;;;;;;779202;183;26473;-87
2023/12/20 14:00:48;;;;;;;;;;;;;;;;;;;;;
2023/12/20 14:03:24;;;;;;;134.57;45.73;;;8.30;93.30;;;;;;780821;183;26485;-86
2023/12/20 14:12:29;;;;;;;62.27;21.30;;;8.30;93.50;;;;;;726764;197;26641;-84
2023/12/20 14:15:20;;;;;;;55.17;22.70;;;8.30;93.40;;;;;;723948;195;27197;-87
2023/12/20 14:20:59;;;;;;;233.40;69.20;;;8.30;93.60;;;;;;738287;182;26506;-84
2023/12/20 14:24:02;;;;;;;;;;;;;;;;;;;;;
2023/12/20 14:26:31;;;;;;;76.70;26.83;;;8.50;93.20;;;;;;772090;183;26564;-84
2023/12/20 14:32:01;;;;;;;63.63;19.90;;;8.40;92.70;;;;;;785850;181;26502;-84
2023/12/20 14:34:34;;;;;;;69.63;21.47;;;8.40;92.90;;;;;;771847;177;26520;-85
2023/12/20 14:40:19;;;;;;;103.97;31.73;;;8.50;93.00;;;;;;750659;188;26539;-86
2023/12/20 14:43:09;;;;;;;;;;;;;;;;;;;;;
2023/12/20 14:46:08;;;;;;;178.23;55.53;;;8.60;92.80;;;;;;795118;180;27034;-85
2023/12/20 14:48:50;;;;;;;181.50;56.30;;;8.60;92.80;;;;;;765838;185;27120;-86
2023/12/20 14:51:25;;;;;;;31.37;13.50;;;8.60;93.00;;;;;;765495;184;27016;-84
2023/12/20 14:53:58;;;;;;;60.70;21.67;;;8.60;92.80;;;;;;755346;185;26480;-83
2023/12/20 14:56:40;;;;;;;47.93;16.27;;;8.60;92.80;;;;;;765081;188;26548;-84
2023/12/20 14:59:28;;;;;;;62.97;23.17;;;8.60;92.70;;;;;;777535;180;26472;-81
2023/12/20 15:02:15;;;;;;;57.77;21.27;;;8.60;92.70;;;;;;778223;179;26472;-86
2023/12/20 15:05:11;;;;;;;41.70;14.03;;;8.70;93.20;;;;;;785278;177;26479;-86
2023/12/20 15:13:57;;;;;;;;;;;;;;;;;;;;;
2023/12/20 15:39:14;;;;;;;53.90;18.77;;;8.40;94.40;;;;;;738272;194;26641;-87
2023/12/20 15:42:23;;;;;;;84.37;31.13;;;8.30;94.30;;;;;;748009;185;26613;-86
2023/12/20 16:09:36;;;;;;;156.43;49.80;;;8.40;94.30;;;;;;738583;176;26517;-85
2023/12/20 16:12:31;;;;;;;64.27;23.47;;;8.40;94.10;;;;;;780047;180;26444;-86
2023/12/20 16:18:10;;;;;;;175.83;48.97;;;8.40;94.60;;;;;;790603;180;26411;-85
2023/12/20 16:21:13;;;;;;;138.03;44.77;;;8.40;94.30;;;;;;800700;175;26429;-87
2023/12/20 16:27:05;;;;;;;188.13;55.03;;;8.40;94.30;;;;;;766270;172;26984;-84
2023/12/20 16:41:48;;;;;;;325.77;101.07;;;8.40;94.40;;;;;;765445;186;26494;-88
2023/12/20 16:47:35;;;;;;;119.03;44.03;;;8.40;94.50;;;;;;774727;182;26484;-89
2023/12/20 16:50:31;;;;;;;105.43;36.73;;;8.40;94.70;;;;;;753214;183;26487;-86
2023/12/20 16:58:58;;;;;;;189.60;57.57;;;8.40;94.40;;;;;;745679;191;26551;-84
2023/12/20 17:01:52;;;;;;;;;;;;;;;;;;;;;
2023/12/20 17:13:06;;;;;;;256.40;81.00;;;8.50;94.00;;;;;;746929;174;26483;-85
2023/12/20 17:15:45;;;;;;;101.73;36.60;;;8.50;94.20;;;;;;779211;181;26489;-84
2023/12/20 17:18:38;;;;;;;107.10;33.90;;;8.50;93.90;;;;;;811357;174;26425;-85
2023/12/20 17:21:51;;;;;;;;;;;;;;;;;;;;;
2023/12/20 17:24:43;;;;;;;184.23;61.17;;;8.60;93.80;;;;;;814386;174;26581;-86
2023/12/20 17:36:06;;;;;;;157.03;53.20;;;8.70;93.60;;;;;;811463;174;27104;-85
2023/12/20 17:38:50;;;;;;;170.87;56.97;;;8.70;93.40;;;;;;820275;174;26406;-85
2023/12/20 17:41:40;;;;;;;;;;;;;;;;;;;;;
2023/12/20 17:52:44;;;;;;;149.90;46.70;;;8.80;93.60;;;;;;807518;176;26424;-88
2023/12/20 17:55:28;;;;;;;158.60;50.63;;;8.80;93.30;;;;;;805576;176;26450;-85
2023/12/20 18:01:21;;;;;;;45.17;18.13;;;8.90;93.40;;;;;;825147;174;26423;-84
2023/12/20 18:04:23;;;;;;;;;;;;;;;;;;;;;
2023/12/20 18:07:08;;;;;;;241.17;75.30;;;8.90;93.40;;;;;;822533;173;26450;-86
2023/12/20 18:09:55;;;;;;;153.87;46.53;;;8.90;92.70;;;;;;824512;174;26476;-86
2023/12/20 18:12:31;;;;;;;189.50;57.77;;;9.00;92.90;;;;;;824366;173;26418;-86
2023/12/20 18:20:48;;;;;;;46.67;16.80;;;9.10;92.60;;;;;;790269;179;26473;-81
2023/12/20 18:23:44;;;;;;;103.67;38.73;;;9.10;92.50;;;;;;776257;183;26983;-86
2023/12/20 18:34:44;;;;;;;;;;;;;;;;;;;;;
2023/12/20 18:39:51;;;;;;;126.23;44.10;;;9.20;91.80;;;;;;797877;180;27034;-87
2023/12/20 18:42:43;;;;;;;152.03;48.87;;;9.30;92.10;;;;;;793654;181;26470;-86
2023/12/20 18:45:42;;;;;;;235.27;82.33;;;9.30;92.10;;;;;;769097;187;26506;-87
2023/12/20 18:48:44;;;;;;;243.57;74.97;;;9.30;92.20;;;;;;793253;177;26469;-85
2023/12/20 18:51:30;;;;;;;228.67;65.00;;;9.30;92.00;;;;;;768662;183;26525;-85
2023/12/20 18:54:16;;;;;;;243.13;69.57;;;9.30;91.90;;;;;;796929;177;26468;-85
2023/12/20 19:02:24;;;;;;;94.13;34.13;;;9.30;91.90;;;;;;808250;178;26973;-84
2023/12/20 19:05:26;;;;;;;145.73;53.13;;;9.30;92.30;;;;;;805972;177;26469;-87
2023/12/20 19:08:39;;;;;;;;;;;;;;;;;;;;;
2023/12/20 19:10:59;;;;;;;306.60;105.97;;;9.30;92.00;;;;;;770048;183;27040;-85
2023/12/20 19:13:46;;;;;;;;;;;;;;;;;;;;;
2023/12/20 19:22:17;;;;;;;159.30;51.93;;;9.40;91.90;;;;;;743222;178;26480;-87
2023/12/20 19:25:08;;;;;;;88.73;29.27;;;9.40;92.60;;;;;;788474;180;26505;-85
2023/12/20 19:28:03;;;;;;;108.27;37.57;;;9.40;92.50;;;;;;786271;181;26994;-85
2023/12/20 19:30:44;;;;;;;169.90;57.63;;;9.40;92.50;;;;;;786221;181;27086;-82
2023/12/20 19:36:01;;;;;;;399.10;122.83;;;9.40;92.60;;;;;;799991;172;26525;-83
2023/12/20 19:38:56;;;;;;;355.43;115.20;;;9.40;92.60;;;;;;809720;177;26440;-86
2023/12/20 19:41:42;;;;;;;215.80;68.03;;;9.40;92.50;;;;;;798030;177;26677;-87
2023/12/20 19:44:37;;;;;;;194.63;66.13;;;9.40;92.50;;;;;;809209;177;26481;-84
2023/12/20 19:47:18;;;;;;;112.40;43.23;;;9.40;92.40;;;;;;796813;180;26423;-84
2023/12/20 19:50:05;;;;;;;71.87;30.10;;;9.40;92.60;;;;;;808335;176;27011;-86
2023/12/20 19:53:26;;;;;;;119.80;40.17;;;9.40;92.60;;;;;;808957;177;26502;-84
2023/12/20 20:04:07;;;;;;;144.40;51.00;;;9.30;93.50;;;;;;737177;178;26467;-92
2023/12/20 22:58:10;;;;;;;137.57;49.20;;;8.80;99.90;;;;;;738444;173;27037;-90
2023/12/20 23:03:36;;;;;;;131.87;45.83;;;8.90;99.90;;;;;;775644;184;26502;-88
2023/12/20 23:06:24;;;;;;;92.73;33.93;;;8.90;99.90;;;;;;775399;184;26602;-87
2023/12/20 23:09:19;;;;;;;;;;;;;;;;;;;;;
2023/12/20 23:12:02;;;;;;;95.03;32.97;;;9.00;99.90;;;;;;773432;183;26484;-89
2023/12/20 23:23:35;;;;;;;;;;;;;;;;;;;;;
2023/12/20 23:34:35;;;;;;;51.87;22.57;;;9.10;99.70;;;;;;729752;180;26572;-87
2023/12/20 23:37:04;;;;;;;32.53;15.50;;;9.10;99.80;;;;;;767764;185;26484;-87
2023/12/20 23:40:16;;;;;;;17.73;10.27;;;9.20;99.80;;;;;;756636;188;26506;-88
2023/12/20 23:43:08;;;;;;;16.10;8.47;;;9.20;99.60;;;;;;769489;186;26507;-89
